createdAt,value
2019-05-29T00:00:26.588Z,60.39
2019-05-29T00:01:26.550Z,60.39
2019-05-29T00:02:26.570Z,60.42
2019-05-29T00:03:26.530Z,60.80
2019-05-29T00:04:26.518Z,60.52
2019-05-29T00:05:26.532Z,60.42
2019-05-29T00:06:26.496Z,60.39
2019-05-29T00:07:26.491Z,60.28
2019-05-29T00:08:26.470Z,60.42
2019-05-29T00:09:26.463Z,60.80
2019-05-29T00:10:26.456Z,60.52
2019-05-29T00:11:26.460Z,60.49
2019-05-29T00:12:26.424Z,60.01
2019-05-29T00:13:26.414Z,60.21
2019-05-29T00:14:27.617Z,60.21
2019-05-29T00:15:26.390Z,60.31
2019-05-29T00:16:26.394Z,60.83
2019-05-29T00:17:26.398Z,60.52
2019-05-29T00:18:26.360Z,60.93
2019-05-29T00:19:26.346Z,60.72
2019-05-29T00:20:26.348Z,60.93
2019-05-29T00:21:26.318Z,60.72
2019-05-29T00:22:26.328Z,60.62
2019-05-29T00:23:26.302Z,60.83
2019-05-29T00:24:26.315Z,60.72
2019-05-29T00:25:26.298Z,61.03
2019-05-29T00:26:26.270Z,60.42
2019-05-29T00:27:26.264Z,60.83
2019-05-29T00:28:26.259Z,60.21
2019-05-29T00:29:26.249Z,60.52
2019-05-29T00:30:26.224Z,60.24
2019-05-29T00:31:26.212Z,60.31
2019-05-29T00:32:26.196Z,60.11
2019-05-29T00:33:26.207Z,60.24
2019-05-29T00:34:26.183Z,60.31
2019-05-29T00:35:26.184Z,60.21
2019-05-29T00:36:26.152Z,60.21
2019-05-29T00:37:26.148Z,60.11
2019-05-29T00:38:26.139Z,60.31
2019-05-29T00:39:26.118Z,60.21
2019-05-29T00:40:26.107Z,60.01
2019-05-29T00:41:26.096Z,60.21
2019-05-29T00:42:26.091Z,60.21
2019-05-29T00:43:26.072Z,60.62
2019-05-29T00:44:34.277Z,60.62
2019-05-29T00:45:27.055Z,60.52
2019-05-29T00:46:26.048Z,60.75
2019-05-29T00:47:26.028Z,60.72
2019-05-29T00:48:26.018Z,60.83
2019-05-29T00:49:26.015Z,60.52
2019-05-29T00:50:26.010Z,61.24
2019-05-29T00:51:25.982Z,61.65
2019-05-29T00:52:25.977Z,61.13
2019-05-29T00:53:25.957Z,61.95
2019-05-29T00:54:25.948Z,61.75
2019-05-29T00:55:25.947Z,61.95
2019-05-29T00:56:25.931Z,61.85
2019-05-29T00:57:25.914Z,61.77
2019-05-29T00:58:25.906Z,61.85
2019-05-29T00:59:25.888Z,62.05
2019-05-29T01:00:25.889Z,62.08
2019-05-29T01:01:25.886Z,61.16
2019-05-29T01:02:25.856Z,61.16
2019-05-29T01:03:25.864Z,60.44
2019-05-29T01:04:25.838Z,61.77
2019-05-29T01:05:25.831Z,61.88
2019-05-29T01:06:25.823Z,61.98
2019-05-29T01:07:25.800Z,61.77
2019-05-29T01:08:25.792Z,62.59
2019-05-29T01:09:25.781Z,61.98
2019-05-29T01:10:25.760Z,62.59
2019-05-29T01:11:25.773Z,62.08
2019-05-29T01:12:25.740Z,62.29
2019-05-29T01:13:25.732Z,61.98
2019-05-29T01:14:25.716Z,62.62
2019-05-29T01:15:25.710Z,62.73
2019-05-29T01:16:25.722Z,63.34
2019-05-29T01:17:25.686Z,63.54
2019-05-29T01:18:25.678Z,63.75
2019-05-29T01:19:25.668Z,63.65
2019-05-29T01:20:25.654Z,63.75
2019-05-29T01:21:25.640Z,63.44
2019-05-29T01:22:25.639Z,64.06
2019-05-29T01:23:25.635Z,64.26
2019-05-29T01:24:25.686Z,64.18
2019-05-29T01:25:25.592Z,64.06
2019-05-29T01:26:25.579Z,63.85
2019-05-29T01:27:25.568Z,63.57
2019-05-29T01:28:25.559Z,64.39
2019-05-29T01:29:25.549Z,64.18
2019-05-29T01:30:25.552Z,64.70
2019-05-29T01:31:25.525Z,64.73
2019-05-29T01:32:25.558Z,65.11
2019-05-29T01:33:25.521Z,65.42
2019-05-29T01:34:25.532Z,65.45
2019-05-29T01:35:25.491Z,66.16
2019-05-29T01:36:25.474Z,65.96
2019-05-29T01:37:26.447Z,65.75
2019-05-29T01:38:25.445Z,65.96
2019-05-29T01:39:25.439Z,66.16
2019-05-29T01:40:28.315Z,66.88
2019-05-29T01:41:25.425Z,66.78
2019-05-29T01:42:25.410Z,66.37
2019-05-29T01:43:25.389Z,66.78
2019-05-29T01:44:25.384Z,66.50
2019-05-29T01:45:25.434Z,66.88
2019-05-29T01:46:25.355Z,67.08
2019-05-29T01:47:25.349Z,66.98
2019-05-29T01:48:25.336Z,67.40
2019-05-29T01:49:25.321Z,67.73
2019-05-29T01:50:25.312Z,67.52
2019-05-29T01:51:25.307Z,67.40
2019-05-29T01:52:25.290Z,67.29
2019-05-29T01:53:25.277Z,67.63
2019-05-29T01:54:25.326Z,67.60
2019-05-29T01:55:25.253Z,67.90
2019-05-29T01:56:25.254Z,68.21
2019-05-29T01:57:25.246Z,68.24
2019-05-29T01:58:25.224Z,68.21
2019-05-29T01:59:25.281Z,68.11
2019-05-29T02:00:25.198Z,68.01
2019-05-29T02:01:25.191Z,67.90
2019-05-29T02:02:25.208Z,68.11
2019-05-29T02:03:25.166Z,68.62
2019-05-29T02:04:25.333Z,68.11
2019-05-29T02:05:25.146Z,68.11
2019-05-29T02:06:25.131Z,67.90
2019-05-29T02:07:25.118Z,68.01
2019-05-29T02:08:25.111Z,68.01
2019-05-29T02:09:25.104Z,68.41
2019-05-29T02:10:26.254Z,68.73
2019-05-29T02:11:25.080Z,68.11
2019-05-29T02:12:25.067Z,68.01
2019-05-29T02:13:25.051Z,68.41
2019-05-29T02:14:25.043Z,67.90
2019-05-29T02:15:32.158Z,68.01
2019-05-29T02:16:26.934Z,68.52
2019-05-29T02:17:25.015Z,68.18
2019-05-29T02:18:25.148Z,67.87
2019-05-29T02:19:25.040Z,68.32
2019-05-29T02:20:25.254Z,68.11
2019-05-29T02:21:24.959Z,67.87
2019-05-29T02:22:25.104Z,68.08
2019-05-29T02:23:24.940Z,68.79
2019-05-29T02:24:25.419Z,67.90
2019-05-29T02:25:24.917Z,68.18
2019-05-29T02:26:24.903Z,68.28
2019-05-29T02:27:25.582Z,68.01
2019-05-29T02:28:24.881Z,68.21
2019-05-29T02:29:24.956Z,68.08
2019-05-29T02:30:27.825Z,67.97
2019-05-29T02:31:27.041Z,68.21
2019-05-29T02:32:25.599Z,67.97
2019-05-29T02:33:26.336Z,67.97
2019-05-29T02:34:25.539Z,68.18
2019-05-29T02:35:26.840Z,68.08
2019-05-29T02:36:26.650Z,67.97
2019-05-29T02:37:26.118Z,67.97
2019-05-29T02:38:25.481Z,68.28
2019-05-29T02:39:25.649Z,68.49
2019-05-29T02:40:26.359Z,68.49
2019-05-29T02:41:26.200Z,68.28
2019-05-29T02:42:25.153Z,68.90
2019-05-29T02:43:26.022Z,68.69
2019-05-29T02:44:25.417Z,68.49
2019-05-29T02:45:45.865Z,69.03
2019-05-29T02:46:26.411Z,68.69
2019-05-29T02:47:26.001Z,68.90
2019-05-29T02:48:25.079Z,68.49
2019-05-29T02:49:25.773Z,68.90
2019-05-29T02:50:26.523Z,68.79
2019-05-29T02:51:26.367Z,68.69
2019-05-29T02:52:26.109Z,68.79
2019-05-29T02:53:26.153Z,68.79
2019-05-29T02:54:25.412Z,68.90
2019-05-29T02:55:24.641Z,69.24
2019-05-29T02:56:24.891Z,69.65
2019-05-29T02:57:24.708Z,69.54
2019-05-29T02:58:25.820Z,69.34
2019-05-29T02:59:25.642Z,69.54
2019-05-29T03:00:25.794Z,69.51
2019-05-29T03:01:25.522Z,69.44
2019-05-29T03:02:25.539Z,69.85
2019-05-29T03:03:26.818Z,69.75
2019-05-29T03:04:26.177Z,69.65
2019-05-29T03:05:25.946Z,69.61
2019-05-29T03:06:26.089Z,69.75
2019-05-29T03:07:26.142Z,69.71
2019-05-29T03:08:24.831Z,69.51
2019-05-29T03:09:24.734Z,69.51
2019-05-29T03:10:24.817Z,68.69
2019-05-29T03:11:25.177Z,69.10
2019-05-29T03:12:25.016Z,69.31
2019-05-29T03:13:25.522Z,69.27
2019-05-29T03:14:25.272Z,69.20
2019-05-29T03:15:25.585Z,68.69
2019-05-29T03:16:26.095Z,69.20
2019-05-29T03:17:25.685Z,69.41
2019-05-29T03:18:25.709Z,69.65
2019-05-29T03:19:25.796Z,69.20
2019-05-29T03:20:25.695Z,68.79
2019-05-29T03:21:25.941Z,69.82
2019-05-29T03:22:24.273Z,68.38
2019-05-29T03:23:24.372Z,69.31
2019-05-29T03:24:24.553Z,69.51
2019-05-29T03:25:24.402Z,69.41
2019-05-29T03:26:26.849Z,69.20
2019-05-29T03:27:25.593Z,69.41
2019-05-29T03:28:25.608Z,69.61
2019-05-29T03:29:25.766Z,69.10
2019-05-29T03:30:26.962Z,69.34
2019-05-29T03:31:29.924Z,69.65
2019-05-29T03:32:28.021Z,69.75
2019-05-29T03:33:30.453Z,69.75
2019-05-29T03:34:30.457Z,69.54
2019-05-29T03:35:28.360Z,68.59
2019-05-29T03:36:28.358Z,69.24
2019-05-29T03:37:26.271Z,68.41
2019-05-29T03:38:24.085Z,69.65
2019-05-29T03:39:24.080Z,69.54
2019-05-29T03:40:24.067Z,69.44
2019-05-29T03:41:24.059Z,69.44
2019-05-29T03:42:24.059Z,69.65
2019-05-29T03:43:24.141Z,69.34
2019-05-29T03:44:24.017Z,69.54
2019-05-29T03:45:24.010Z,68.93
2019-05-29T03:46:31.600Z,69.13
2019-05-29T03:47:26.787Z,69.54
2019-05-29T03:48:25.821Z,69.75
2019-05-29T03:49:23.969Z,69.75
2019-05-29T03:50:23.951Z,69.54
2019-05-29T03:51:23.943Z,70.16
2019-05-29T03:52:23.955Z,69.95
2019-05-29T03:53:23.931Z,69.65
2019-05-29T03:54:23.924Z,69.95
2019-05-29T03:55:23.896Z,70.06
2019-05-29T03:56:23.895Z,70.06
2019-05-29T03:57:23.869Z,69.95
2019-05-29T03:58:23.867Z,69.95
2019-05-29T03:59:23.875Z,69.85
2019-05-29T04:00:23.845Z,70.26
2019-05-29T04:01:23.879Z,70.16
2019-05-29T04:02:23.821Z,70.06
2019-05-29T04:03:23.809Z,70.57
2019-05-29T04:04:23.799Z,70.26
2019-05-29T04:05:23.775Z,70.26
2019-05-29T04:06:23.767Z,70.16
2019-05-29T04:07:23.765Z,70.47
2019-05-29T04:08:23.753Z,70.36
2019-05-29T04:09:23.745Z,70.06
2019-05-29T04:10:23.735Z,70.36
2019-05-29T04:11:23.727Z,70.47
2019-05-29T04:12:23.701Z,70.36
2019-05-29T04:13:23.689Z,70.26
2019-05-29T04:14:23.677Z,70.16
2019-05-29T04:15:23.681Z,70.16
2019-05-29T04:16:23.683Z,70.06
2019-05-29T04:17:23.647Z,70.36
2019-05-29T04:18:23.633Z,70.16
2019-05-29T04:19:23.625Z,70.26
2019-05-29T04:20:23.610Z,70.36
2019-05-29T04:21:23.605Z,70.47
2019-05-29T04:22:23.590Z,70.26
2019-05-29T04:23:23.574Z,70.43
2019-05-29T04:24:23.601Z,70.47
2019-05-29T04:25:23.556Z,70.53
2019-05-29T04:26:23.543Z,70.43
2019-05-29T04:27:23.547Z,70.16
2019-05-29T04:28:23.517Z,70.26
2019-05-29T04:29:23.532Z,70.64
2019-05-29T04:30:23.517Z,70.67
2019-05-29T04:31:23.485Z,70.47
2019-05-29T04:32:23.489Z,70.23
2019-05-29T04:33:23.467Z,70.47
2019-05-29T04:34:23.450Z,70.43
2019-05-29T04:35:23.437Z,70.64
2019-05-29T04:36:23.427Z,70.43
2019-05-29T04:37:23.425Z,70.43
2019-05-29T04:38:23.418Z,70.12
2019-05-29T04:39:23.392Z,69.71
2019-05-29T04:40:23.383Z,69.99
2019-05-29T04:41:23.371Z,69.48
2019-05-29T04:42:23.361Z,69.48
2019-05-29T04:43:23.356Z,69.27
2019-05-29T04:44:23.338Z,69.48
2019-05-29T04:45:23.327Z,69.04
2019-05-29T04:46:23.316Z,68.73
2019-05-29T04:47:23.306Z,68.73
2019-05-29T04:48:23.324Z,68.63
2019-05-29T04:49:23.320Z,69.14
2019-05-29T04:50:23.278Z,68.01
2019-05-29T04:51:23.255Z,67.81
2019-05-29T04:52:23.249Z,67.91
2019-05-29T04:53:23.233Z,68.12
2019-05-29T04:54:23.226Z,67.50
2019-05-29T04:55:23.244Z,67.27
2019-05-29T04:56:23.201Z,67.37
2019-05-29T04:57:23.192Z,68.08
2019-05-29T04:58:23.175Z,66.86
2019-05-29T04:59:23.174Z,66.86
2019-05-29T05:00:23.177Z,66.72
2019-05-29T05:01:23.139Z,67.03
2019-05-29T05:02:23.138Z,66.31
2019-05-29T05:03:23.122Z,65.88
2019-05-29T05:04:23.124Z,64.93
2019-05-29T05:05:23.109Z,64.24
2019-05-29T05:06:23.083Z,64.86
2019-05-29T05:07:23.168Z,65.47
2019-05-29T05:08:23.229Z,65.88
2019-05-29T05:09:23.079Z,65.67
2019-05-29T05:10:23.043Z,65.57
2019-05-29T05:11:23.049Z,65.70
2019-05-29T05:12:23.018Z,65.88
2019-05-29T05:13:23.014Z,65.26
2019-05-29T05:14:22.997Z,65.67
2019-05-29T05:15:22.998Z,65.77
2019-05-29T05:16:22.976Z,65.88
2019-05-29T05:17:26.182Z,66.08
2019-05-29T05:18:22.981Z,64.42
2019-05-29T05:19:22.960Z,64.24
2019-05-29T05:20:22.934Z,63.70
2019-05-29T05:21:22.920Z,64.22
2019-05-29T05:22:22.912Z,63.60
2019-05-29T05:23:43.916Z,63.37
2019-05-29T05:24:22.886Z,62.32
2019-05-29T05:25:22.874Z,60.39
2019-05-29T05:26:22.866Z,58.00
2019-05-29T05:27:22.859Z,58.38
2019-05-29T05:28:22.853Z,55.96
2019-05-29T05:29:22.825Z,54.87
2019-05-29T05:30:22.818Z,56.09
2019-05-29T05:31:22.800Z,56.01
2019-05-29T05:32:22.808Z,56.49
2019-05-29T05:33:22.835Z,56.39
2019-05-29T05:34:22.799Z,56.60
2019-05-29T05:35:22.759Z,55.99
2019-05-29T05:36:22.746Z,55.60
2019-05-29T05:37:22.755Z,56.82
2019-05-29T05:38:22.730Z,57.26
2019-05-29T05:39:23.227Z,56.95
2019-05-29T05:40:22.705Z,56.45
2019-05-29T05:41:22.693Z,57.08
2019-05-29T05:42:22.678Z,57.59
2019-05-29T05:43:24.491Z,56.68
2019-05-29T05:44:22.665Z,57.29
2019-05-29T05:45:22.656Z,56.60
2019-05-29T05:46:24.740Z,57.72
2019-05-29T05:47:22.647Z,57.01
2019-05-29T05:48:22.702Z,57.01
2019-05-29T05:49:22.596Z,57.01
2019-05-29T05:50:22.598Z,56.27
2019-05-29T05:51:22.603Z,56.88
2019-05-29T05:52:22.565Z,55.86
2019-05-29T05:53:22.557Z,56.07
2019-05-29T05:54:22.541Z,56.57
2019-05-29T05:55:22.540Z,55.22
2019-05-29T05:56:22.538Z,54.44
2019-05-29T05:57:22.514Z,54.54
2019-05-29T05:58:22.498Z,54.94
2019-05-29T05:59:22.502Z,55.46
2019-05-29T06:00:22.472Z,55.55
2019-05-29T06:01:22.474Z,54.24
2019-05-29T06:02:22.602Z,55.33
2019-05-29T06:03:22.494Z,55.63
2019-05-29T06:04:22.430Z,54.51
2019-05-29T06:05:22.418Z,54.31
2019-05-29T06:06:22.414Z,54.21
2019-05-29T06:07:22.422Z,54.21
2019-05-29T06:08:22.386Z,54.72
2019-05-29T06:09:22.384Z,54.54
2019-05-29T06:10:22.371Z,54.57
2019-05-29T06:11:22.361Z,54.97
2019-05-29T06:12:22.345Z,55.28
2019-05-29T06:13:22.324Z,56.12
2019-05-29T06:14:22.316Z,55.81
2019-05-29T06:15:22.308Z,55.91
2019-05-29T06:16:22.377Z,56.35
2019-05-29T06:17:22.286Z,56.35
2019-05-29T06:18:22.276Z,56.45
2019-05-29T06:19:22.264Z,56.55
2019-05-29T06:20:22.407Z,56.93
2019-05-29T06:21:22.235Z,57.17
2019-05-29T06:22:22.230Z,56.12
2019-05-29T06:23:22.227Z,56.55
2019-05-29T06:24:22.225Z,56.45
2019-05-29T06:25:22.207Z,56.45
2019-05-29T06:26:22.177Z,56.73
2019-05-29T06:27:22.172Z,56.12
2019-05-29T06:28:22.158Z,56.02
2019-05-29T06:29:22.154Z,56.22
2019-05-29T06:30:22.138Z,55.91
2019-05-29T06:31:22.122Z,56.04
2019-05-29T06:32:22.109Z,56.52
2019-05-29T06:33:22.208Z,56.24
2019-05-29T06:34:22.089Z,56.27
2019-05-29T06:35:22.090Z,56.78
2019-05-29T06:36:22.222Z,56.48
2019-05-29T06:37:22.060Z,56.88
2019-05-29T06:38:22.066Z,57.83
2019-05-29T06:39:22.032Z,56.91
2019-05-29T06:40:22.070Z,56.99
2019-05-29T06:41:22.014Z,56.27
2019-05-29T06:42:22.000Z,56.07
2019-05-29T06:43:21.989Z,56.48
2019-05-29T06:44:21.983Z,56.10
2019-05-29T06:45:21.964Z,56.50
2019-05-29T06:46:21.969Z,56.30
2019-05-29T06:47:21.949Z,55.99
2019-05-29T06:48:40.629Z,55.99
2019-05-29T06:49:22.919Z,56.10
2019-05-29T06:50:21.910Z,54.97
2019-05-29T06:51:21.901Z,54.67
2019-05-29T06:52:21.890Z,54.36
2019-05-29T06:53:21.879Z,54.26
2019-05-29T06:54:21.875Z,54.97
2019-05-29T06:55:21.862Z,53.85
2019-05-29T06:56:21.844Z,54.57
2019-05-29T06:57:25.794Z,54.46
2019-05-29T06:58:21.828Z,54.97
2019-05-29T06:59:21.812Z,54.77
2019-05-29T07:00:34.886Z,54.77
2019-05-29T07:01:22.788Z,54.85
2019-05-29T07:02:21.782Z,54.64
2019-05-29T07:03:21.774Z,54.03
2019-05-29T07:04:21.755Z,53.52
2019-05-29T07:05:21.742Z,53.92
2019-05-29T07:06:21.737Z,54.24
2019-05-29T07:07:21.724Z,54.85
2019-05-29T07:08:37.594Z,54.36
2019-05-29T07:09:22.700Z,54.44
2019-05-29T07:10:21.688Z,54.13
2019-05-29T07:11:21.675Z,54.33
2019-05-29T07:12:21.664Z,53.80
2019-05-29T07:13:21.661Z,54.11
2019-05-29T07:14:21.662Z,53.67
2019-05-29T07:15:21.634Z,53.06
2019-05-29T07:16:21.632Z,53.57
2019-05-29T07:17:21.616Z,53.37
2019-05-29T07:18:21.605Z,53.55
2019-05-29T07:19:34.370Z,53.34
2019-05-29T07:20:22.580Z,53.06
2019-05-29T07:21:21.566Z,53.34
2019-05-29T07:22:21.558Z,53.55
2019-05-29T07:23:21.565Z,53.42
2019-05-29T07:24:21.546Z,52.40
2019-05-29T07:25:21.530Z,51.72
2019-05-29T07:26:21.531Z,52.61
2019-05-29T07:27:21.496Z,52.81
2019-05-29T07:28:21.505Z,51.67
2019-05-29T07:29:21.476Z,51.18
2019-05-29T07:30:21.484Z,51.59
2019-05-29T07:31:21.465Z,51.69
2019-05-29T07:32:21.445Z,52.81
2019-05-29T07:33:21.433Z,52.48
2019-05-29T07:34:21.424Z,51.77
2019-05-29T07:35:21.409Z,50.73
2019-05-29T07:36:21.402Z,49.91
2019-05-29T07:37:21.406Z,50.65
2019-05-29T07:38:21.380Z,50.73
2019-05-29T07:39:21.366Z,50.20
2019-05-29T07:40:21.364Z,49.89
2019-05-29T07:41:21.344Z,50.07
2019-05-29T07:42:21.332Z,49.97
2019-05-29T07:43:21.315Z,49.36
2019-05-29T07:44:21.304Z,50.17
2019-05-29T07:45:21.292Z,49.26
2019-05-29T07:46:21.278Z,48.44
2019-05-29T07:47:21.277Z,48.22
2019-05-29T07:48:21.260Z,47.81
2019-05-29T07:49:35.871Z,48.63
2019-05-29T07:50:22.244Z,48.72
2019-05-29T07:51:21.228Z,47.30
2019-05-29T07:52:21.225Z,48.34
2019-05-29T07:53:21.204Z,47.94
2019-05-29T07:54:21.190Z,47.43
2019-05-29T07:55:23.668Z,46.44
2019-05-29T07:56:22.890Z,46.03
2019-05-29T07:57:21.166Z,46.15
2019-05-29T07:58:21.164Z,46.78
2019-05-29T07:59:21.194Z,47.09
2019-05-29T08:00:21.121Z,47.60
2019-05-29T08:01:21.112Z,47.29
2019-05-29T08:02:21.123Z,47.09
2019-05-29T08:03:21.086Z,47.39
2019-05-29T08:04:21.157Z,47.17
2019-05-29T08:05:21.064Z,47.29
2019-05-29T08:06:21.048Z,47.17
2019-05-29T08:07:21.043Z,47.78
2019-05-29T08:08:21.028Z,48.11
2019-05-29T08:09:21.041Z,48.51
2019-05-29T08:10:21.043Z,49.20
2019-05-29T08:11:20.997Z,48.39
2019-05-29T08:12:20.986Z,48.82
2019-05-29T08:13:20.976Z,48.08
2019-05-29T08:14:20.963Z,47.37
2019-05-29T08:15:20.960Z,47.47
2019-05-29T08:16:20.935Z,47.70
2019-05-29T08:17:20.928Z,47.50
2019-05-29T08:18:20.919Z,47.62
2019-05-29T08:19:20.966Z,48.74
2019-05-29T08:20:20.902Z,49.22
2019-05-29T08:21:20.906Z,48.72
2019-05-29T08:22:33.788Z,47.27
2019-05-29T08:23:21.859Z,45.32
2019-05-29T08:24:24.742Z,45.50
2019-05-29T08:25:20.862Z,45.58
2019-05-29T08:26:20.833Z,45.90
2019-05-29T08:27:20.808Z,45.78
2019-05-29T08:28:20.806Z,46.11
2019-05-29T08:29:20.788Z,46.62
2019-05-29T08:30:20.783Z,45.80
2019-05-29T08:31:20.771Z,46.11
2019-05-29T08:32:20.760Z,46.11
2019-05-29T08:33:20.773Z,45.72
2019-05-29T08:34:20.735Z,44.81
2019-05-29T08:35:20.727Z,45.83
2019-05-29T08:36:20.712Z,45.42
2019-05-29T08:37:20.699Z,45.42
2019-05-29T08:38:20.683Z,45.34
2019-05-29T08:39:35.572Z,44.81
2019-05-29T08:40:21.660Z,45.50
2019-05-29T08:41:20.730Z,44.87
2019-05-29T08:42:23.567Z,44.74
2019-05-29T08:43:20.663Z,43.93
2019-05-29T08:44:20.620Z,43.12
2019-05-29T08:45:20.600Z,44.13
2019-05-29T08:46:20.600Z,44.24
2019-05-29T08:47:20.584Z,43.23
2019-05-29T08:48:20.587Z,44.56
2019-05-29T08:49:20.586Z,44.89
2019-05-29T08:50:20.559Z,44.59
2019-05-29T08:51:20.537Z,44.99
2019-05-29T08:52:20.527Z,45.21
2019-05-29T08:53:20.531Z,45.32
2019-05-29T08:54:23.826Z,44.30
2019-05-29T08:55:20.513Z,44.48
2019-05-29T08:56:20.483Z,43.96
2019-05-29T08:57:20.472Z,43.14
2019-05-29T08:58:20.461Z,42.82
2019-05-29T08:59:20.450Z,42.82
2019-05-29T09:00:20.435Z,43.00
2019-05-29T09:01:20.419Z,42.49
2019-05-29T09:02:20.414Z,42.49
2019-05-29T09:03:20.407Z,42.29
2019-05-29T09:04:20.395Z,42.61
2019-05-29T09:05:20.386Z,42.54
2019-05-29T09:06:20.392Z,43.53
2019-05-29T09:07:20.360Z,43.23
2019-05-29T09:08:20.341Z,43.43
2019-05-29T09:09:20.333Z,44.77
2019-05-29T09:10:20.319Z,44.77
2019-05-29T09:11:20.325Z,44.36
2019-05-29T09:12:20.311Z,44.46
2019-05-29T09:13:20.285Z,44.48
2019-05-29T09:14:20.285Z,44.48
2019-05-29T09:15:21.738Z,42.86
2019-05-29T09:16:20.272Z,42.66
2019-05-29T09:17:20.241Z,43.06
2019-05-29T09:18:21.526Z,42.55
2019-05-29T09:19:21.072Z,43.04
2019-05-29T09:20:32.056Z,42.43
2019-05-29T09:21:21.228Z,43.37
2019-05-29T09:22:20.993Z,43.04
2019-05-29T09:23:20.922Z,42.84
2019-05-29T09:24:20.908Z,43.32
2019-05-29T09:25:21.172Z,42.63
2019-05-29T09:26:23.889Z,43.02
2019-05-29T09:27:21.270Z,42.61
2019-05-29T09:28:21.787Z,42.92
2019-05-29T09:29:23.311Z,42.72
2019-05-29T09:30:20.347Z,43.00
2019-05-29T09:31:20.379Z,42.82
2019-05-29T09:32:40.887Z,42.69
2019-05-29T09:33:21.857Z,42.82
2019-05-29T09:34:20.576Z,43.32
2019-05-29T09:35:21.568Z,44.34
2019-05-29T09:36:20.728Z,44.77
2019-05-29T09:37:20.481Z,44.46
2019-05-29T09:38:20.979Z,44.46
2019-05-29T09:39:21.066Z,44.26
2019-05-29T09:40:20.999Z,43.65
2019-05-29T09:41:21.707Z,43.44
2019-05-29T09:42:20.700Z,42.63
2019-05-29T09:43:23.148Z,42.41
2019-05-29T09:44:36.018Z,42.41
2019-05-29T09:45:21.560Z,41.78
2019-05-29T09:46:20.236Z,41.88
2019-05-29T09:47:20.273Z,40.55
2019-05-29T09:48:23.325Z,41.14
2019-05-29T09:49:21.814Z,41.14
2019-05-29T09:50:22.742Z,40.83
2019-05-29T09:51:21.558Z,41.14
2019-05-29T09:52:19.845Z,41.64
2019-05-29T09:53:19.838Z,42.86
2019-05-29T09:54:19.947Z,42.25
2019-05-29T09:55:19.828Z,41.54
2019-05-29T09:56:19.802Z,42.46
2019-05-29T09:57:19.788Z,42.78
2019-05-29T09:58:19.854Z,42.09
2019-05-29T09:59:19.765Z,43.30
2019-05-29T10:00:19.767Z,42.49
2019-05-29T10:01:24.133Z,42.41
2019-05-29T10:02:20.746Z,43.43
2019-05-29T10:03:19.717Z,43.84
2019-05-29T10:04:19.709Z,44.06
2019-05-29T10:05:19.700Z,43.53
2019-05-29T10:06:19.691Z,41.19
2019-05-29T10:07:19.698Z,40.38
2019-05-29T10:08:19.669Z,41.17
2019-05-29T10:09:19.654Z,40.87
2019-05-29T10:10:19.667Z,40.97
2019-05-29T10:11:19.634Z,40.56
2019-05-29T10:12:19.705Z,40.56
2019-05-29T10:13:19.612Z,39.96
2019-05-29T10:14:19.600Z,40.04
2019-05-29T10:15:19.586Z,40.43
2019-05-29T10:16:19.605Z,40.02
2019-05-29T10:17:19.571Z,40.63
2019-05-29T10:18:31.797Z,40.12
2019-05-29T10:19:20.541Z,40.33
2019-05-29T10:20:19.530Z,40.43
2019-05-29T10:21:19.521Z,41.26
2019-05-29T10:22:19.509Z,41.36
2019-05-29T10:23:20.168Z,41.56
2019-05-29T10:24:19.479Z,40.06
2019-05-29T10:25:19.467Z,41.48
2019-05-29T10:26:19.455Z,41.38
2019-05-29T10:27:19.458Z,40.79
2019-05-29T10:28:19.438Z,40.79
2019-05-29T10:29:19.439Z,40.47
2019-05-29T10:30:19.423Z,40.47
2019-05-29T10:31:19.407Z,40.06
2019-05-29T10:32:19.394Z,40.56
2019-05-29T10:33:19.397Z,40.04
2019-05-29T10:34:19.378Z,39.13
2019-05-29T10:35:19.360Z,40.14
2019-05-29T10:36:19.383Z,39.42
2019-05-29T10:37:19.395Z,39.72
2019-05-29T10:38:19.336Z,39.92
2019-05-29T10:39:19.340Z,40.22
2019-05-29T10:40:19.310Z,39.42
2019-05-29T10:41:19.312Z,39.42
2019-05-29T10:42:20.763Z,39.72
2019-05-29T10:43:33.237Z,38.70
2019-05-29T10:44:20.279Z,39.31
2019-05-29T10:45:19.304Z,39.01
2019-05-29T10:46:19.230Z,38.50
2019-05-29T10:47:19.224Z,39.43
2019-05-29T10:48:19.212Z,39.42
2019-05-29T10:49:19.194Z,38.81
2019-05-29T10:50:19.193Z,37.89
2019-05-29T10:51:19.243Z,38.10
2019-05-29T10:52:19.165Z,38.60
2019-05-29T10:53:19.209Z,38.50
2019-05-29T10:54:19.143Z,38.10
2019-05-29T10:55:19.131Z,38.81
2019-05-29T10:56:21.195Z,39.11
2019-05-29T10:57:19.107Z,39.11
2019-05-29T10:58:19.122Z,39.42
2019-05-29T10:59:19.085Z,38.91
2019-05-29T11:00:19.084Z,39.72
2019-05-29T11:01:19.091Z,39.62
2019-05-29T11:02:19.068Z,39.51
2019-05-29T11:03:19.061Z,39.72
2019-05-29T11:04:19.029Z,39.23
2019-05-29T11:05:19.058Z,40.14
2019-05-29T11:06:19.011Z,40.24
2019-05-29T11:07:19.007Z,41.66
2019-05-29T11:08:18.984Z,40.34
2019-05-29T11:09:18.972Z,40.24
2019-05-29T11:10:18.963Z,41.03
2019-05-29T11:11:18.951Z,40.33
2019-05-29T11:12:18.937Z,40.83
2019-05-29T11:13:18.931Z,39.11
2019-05-29T11:14:18.916Z,39.33
2019-05-29T11:15:21.668Z,39.23
2019-05-29T11:16:18.889Z,39.23
2019-05-29T11:17:18.883Z,39.64
2019-05-29T11:18:18.874Z,39.01
2019-05-29T11:19:18.859Z,38.70
2019-05-29T11:20:18.848Z,38.60
2019-05-29T11:21:18.841Z,39.09
2019-05-29T11:22:26.067Z,38.50
2019-05-29T11:23:19.826Z,38.39
2019-05-29T11:24:18.811Z,38.30
2019-05-29T11:25:23.536Z,38.10
2019-05-29T11:26:19.780Z,36.96
2019-05-29T11:27:18.767Z,37.47
2019-05-29T11:28:18.780Z,37.29
2019-05-29T11:29:18.757Z,37.27
2019-05-29T11:30:18.755Z,37.37
2019-05-29T11:31:18.727Z,36.36
2019-05-29T11:32:18.719Z,37.45
2019-05-29T11:33:18.720Z,37.45
2019-05-29T11:34:18.685Z,37.15
2019-05-29T11:35:18.682Z,36.94
2019-05-29T11:36:18.705Z,36.74
2019-05-29T11:37:18.659Z,37.35
2019-05-29T11:38:18.643Z,36.65
2019-05-29T11:39:18.659Z,36.76
2019-05-29T11:40:18.628Z,37.35
2019-05-29T11:41:26.217Z,38.06
2019-05-29T11:42:27.527Z,37.76
2019-05-29T11:43:19.604Z,37.65
2019-05-29T11:44:18.580Z,37.86
2019-05-29T11:45:18.574Z,37.45
2019-05-29T11:46:18.609Z,37.96
2019-05-29T11:47:18.613Z,37.65
2019-05-29T11:48:18.533Z,37.86
2019-05-29T11:49:18.517Z,38.57
2019-05-29T11:50:20.050Z,38.46
2019-05-29T11:51:18.500Z,38.67
2019-05-29T11:52:24.551Z,38.57
2019-05-29T11:53:19.537Z,38.26
2019-05-29T11:54:18.471Z,37.45
2019-05-29T11:55:18.452Z,37.57
2019-05-29T11:56:18.438Z,37.77
2019-05-29T11:57:18.424Z,37.88
2019-05-29T11:58:30.526Z,37.67
2019-05-29T11:59:19.413Z,38.28
2019-05-29T12:00:20.610Z,38.68
2019-05-29T12:01:18.381Z,38.06
2019-05-29T12:02:18.406Z,37.88
2019-05-29T12:03:18.378Z,37.37
2019-05-29T12:04:26.489Z,37.05
2019-05-29T12:05:19.538Z,37.15
2019-05-29T12:06:18.326Z,37.45
2019-05-29T12:07:18.317Z,37.35
2019-05-29T12:08:18.321Z,37.43
2019-05-29T12:09:32.144Z,37.43
2019-05-29T12:10:19.281Z,36.32
2019-05-29T12:11:18.268Z,36.93
2019-05-29T12:12:18.280Z,37.23
2019-05-29T12:13:18.269Z,36.32
2019-05-29T12:14:18.233Z,36.43
2019-05-29T12:15:18.923Z,37.74
2019-05-29T12:16:18.212Z,37.64
2019-05-29T12:17:18.199Z,36.63
2019-05-29T12:18:23.945Z,36.22
2019-05-29T12:19:19.201Z,36.34
2019-05-29T12:20:27.970Z,36.32
2019-05-29T12:21:19.158Z,36.52
2019-05-29T12:22:18.142Z,36.63
2019-05-29T12:23:25.873Z,36.32
2019-05-29T12:24:19.172Z,35.80
2019-05-29T12:25:18.124Z,36.32
2019-05-29T12:26:22.798Z,36.41
2019-05-29T12:27:19.090Z,36.43
2019-05-29T12:28:18.082Z,36.43
2019-05-29T12:29:18.074Z,36.10
2019-05-29T12:30:18.058Z,35.60
2019-05-29T12:31:18.056Z,36.51
2019-05-29T12:32:18.093Z,35.88
2019-05-29T12:33:18.055Z,35.78
2019-05-29T12:34:19.453Z,35.19
2019-05-29T12:35:17.999Z,36.10
2019-05-29T12:36:17.995Z,36.41
2019-05-29T12:37:17.996Z,35.78
2019-05-29T12:38:17.962Z,36.00
2019-05-29T12:39:17.978Z,36.61
2019-05-29T12:40:17.943Z,36.29
2019-05-29T12:41:17.934Z,36.69
2019-05-29T12:42:17.931Z,35.78
2019-05-29T12:43:27.211Z,35.78
2019-05-29T12:44:18.889Z,35.48
2019-05-29T12:45:17.887Z,36.08
2019-05-29T12:46:17.883Z,35.68
2019-05-29T12:47:17.867Z,36.29
2019-05-29T12:48:17.999Z,35.39
2019-05-29T12:49:17.891Z,35.48
2019-05-29T12:50:17.833Z,35.48
2019-05-29T12:51:17.819Z,35.19
2019-05-29T12:52:17.821Z,35.60